Time;durP1;ratioP1;P1;durP2;ratioP2;P2;SDS_P1;SDS_P2;PMS_P1;PMS_P2;Temp;Humidity;BMP_temperature;BMP_pressure;BME280_temperature;BME280_humidity;BME280_pressure;Samples;Min_cycle;Max_cycle;Signal;HPM_P1;HPM_P2
2023/09/12 00:00:53;;;;;;;11.10;10.00;;;21.00;99.90;;;;;;5021368;28;20481;-86
2023/09/12 00:03:20;;;;;;;14.50;10.17;;;20.90;99.90;;;;;;5025870;28;20510;-86
2023/09/12 00:05:58;;;;;;;11.05;9.95;;;20.90;99.90;;;;;;5012085;28;20195;-87
2023/09/12 00:08:24;;;;;;;12.27;11.07;;;20.50;99.90;;;;;;4995741;28;20182;-86
2023/09/12 00:11:10;;;;;;;14.33;10.67;;;20.90;99.90;;;;;;5002563;28;20607;-85
2023/09/12 00:13:37;;;;;;;11.23;10.18;;;20.50;99.90;;;;;;5005351;28;20210;-86
2023/09/12 00:16:03;;;;;;;11.55;10.20;;;20.90;99.90;;;;;;5000488;28;20496;-86
2023/09/12 00:18:28;;;;;;;11.60;9.43;;;20.50;99.90;;;;;;5004561;28;20410;-86
2023/09/12 00:20:54;;;;;;;14.10;10.77;;;20.50;99.90;;;;;;5018069;28;20203;-85
2023/09/12 00:23:21;;;;;;;11.30;10.23;;;20.80;99.90;;;;;;5013458;28;20242;-85
2023/09/12 00:25:47;;;;;;;10.43;9.27;;;20.70;99.90;;;;;;5011733;28;20566;-85
2023/09/12 00:28:13;;;;;;;10.80;9.77;;;20.80;99.90;;;;;;5000271;28;20206;-84
2023/09/12 00:30:38;;;;;;;11.40;9.83;;;20.70;99.90;;;;;;5004401;28;20680;-85
2023/09/12 00:33:04;;;;;;;10.50;9.50;;;20.30;99.90;;;;;;5024382;28;20195;-86
2023/09/12 00:35:29;;;;;;;10.90;9.60;;;20.90;99.90;;;;;;5015966;28;20243;-85
2023/09/12 00:37:55;;;;;;;12.03;10.80;;;20.30;99.90;;;;;;5000588;28;20178;-85
2023/09/12 00:40:21;;;;;;;16.10;9.90;;;20.40;99.90;;;;;;4999411;28;20667;-85
2023/09/12 00:42:47;;;;;;;11.02;9.98;;;20.20;99.90;;;;;;5005177;28;20207;-84
2023/09/12 00:45:12;;;;;;;12.80;11.03;;;20.50;99.90;;;;;;4999547;28;20241;-85
2023/09/12 00:47:38;;;;;;;11.27;10.20;;;20.40;99.90;;;;;;4997344;28;20187;-85
2023/09/12 00:50:05;;;;;;;10.60;9.50;;;20.30;99.90;;;;;;5001419;28;20180;-85
2023/09/12 00:52:33;;;;;;;10.82;9.90;;;20.20;99.90;;;;;;5001227;28;20707;-84
2023/09/12 00:54:58;;;;;;;11.25;10.02;;;20.60;99.90;;;;;;5008485;28;20203;-85
2023/09/12 00:57:25;;;;;;;10.17;9.17;;;20.20;99.90;;;;;;4998436;28;20324;-85
2023/09/12 00:59:52;;;;;;;13.88;9.20;;;20.20;99.90;;;;;;5001969;28;20187;-86
2023/09/12 01:02:19;;;;;;;11.80;10.23;;;20.70;99.90;;;;;;5000126;28;20694;-85
2023/09/12 01:04:45;;;;;;;12.38;9.70;;;20.50;99.90;;;;;;4999427;28;20195;-85
2023/09/12 01:07:11;;;;;;;13.35;10.10;;;20.30;99.90;;;;;;5003763;28;20183;-84
2023/09/12 01:09:36;;;;;;;11.23;10.17;;;20.10;99.90;;;;;;5006192;28;20209;-91
2023/09/12 01:12:02;;;;;;;9.33;8.43;;;20.20;99.90;;;;;;5002224;28;20612;-88
2023/09/12 01:14:29;;;;;;;12.10;9.65;;;19.90;99.90;;;;;;5005020;28;21434;-91
2023/09/12 01:16:55;;;;;;;10.45;9.50;;;20.30;99.90;;;;;;4999148;28;20182;-90
2023/09/12 01:19:21;;;;;;;12.35;9.80;;;20.10;99.90;;;;;;4989304;28;20211;-90
2023/09/12 01:22:05;;;;;;;10.60;9.60;;;19.90;99.90;;;;;;5000648;28;20223;-90
2023/09/12 01:25:05;;;;;;;11.20;9.63;;;19.90;99.90;;;;;;5000079;28;20682;-89
2023/09/12 01:28:03;;;;;;;10.65;9.40;;;19.90;99.90;;;;;;4998221;28;20195;-89
2023/09/12 01:30:31;;;;;;;10.75;9.23;;;19.90;99.90;;;;;;4988761;28;20206;-88
2023/09/12 01:32:58;;;;;;;12.15;9.38;;;20.00;99.90;;;;;;4995450;28;20235;-88
2023/09/12 01:35:23;;;;;;;11.00;9.88;;;19.90;99.90;;;;;;4995341;28;20184;-89
2023/09/12 01:37:49;;;;;;;11.03;10.00;;;20.20;99.90;;;;;;4995307;28;20738;-89
2023/09/12 01:40:16;;;;;;;10.70;9.70;;;20.10;99.90;;;;;;5003636;28;20179;-90
2023/09/12 01:42:45;;;;;;;11.52;9.15;;;21.00;99.90;;;;;;4999198;28;20362;-89
2023/09/12 01:45:15;;;;;;;10.90;9.90;;;19.90;99.90;;;;;;5027346;28;20191;-88
2023/09/12 01:47:41;;;;;;;10.75;9.85;;;20.20;99.90;;;;;;5020283;28;20194;-89
2023/09/12 01:50:12;;;;;;;11.48;10.32;;;20.00;99.90;;;;;;5012362;28;20648;-89
2023/09/12 01:52:38;;;;;;;11.85;9.25;;;20.50;99.90;;;;;;5015035;28;20199;-89
2023/09/12 01:55:06;;;;;;;10.10;9.10;;;19.90;99.90;;;;;;4982805;28;20191;-88
2023/09/12 01:57:32;;;;;;;10.77;9.88;;;19.70;99.90;;;;;;5003988;28;20508;-89
2023/09/12 01:59:58;;;;;;;11.15;10.05;;;19.80;99.90;;;;;;5011801;28;20182;-89
2023/09/12 02:02:23;;;;;;;11.43;10.30;;;20.30;99.90;;;;;;5007641;28;20234;-89
2023/09/12 02:05:11;;;;;;;11.00;9.93;;;19.80;99.90;;;;;;5008893;28;20199;-89
2023/09/12 02:07:39;;;;;;;11.45;10.32;;;20.10;99.90;;;;;;5002699;28;20648;-89
2023/09/12 02:10:05;;;;;;;11.80;9.68;;;20.00;99.90;;;;;;5004668;28;20195;-89
2023/09/12 02:12:33;;;;;;;10.30;9.40;;;19.70;99.90;;;;;;5001836;28;20194;-89
2023/09/12 02:14:59;;;;;;;11.45;9.50;;;19.90;99.90;;;;;;4999769;28;20276;-88
2023/09/12 02:17:25;;;;;;;13.33;10.30;;;19.70;99.90;;;;;;5005667;28;20635;-89
2023/09/12 02:19:50;;;;;;;10.17;9.07;;;19.60;99.90;;;;;;4999527;28;20179;-89
2023/09/12 02:22:16;;;;;;;11.43;10.23;;;19.70;99.90;;;;;;5005805;28;20746;-88
2023/09/12 02:24:41;;;;;;;11.33;10.00;;;19.90;99.90;;;;;;5012036;28;20679;-89
2023/09/12 02:27:07;;;;;;;11.30;10.20;;;20.00;99.90;;;;;;5022689;28;20172;-89
2023/09/12 02:29:33;;;;;;;10.80;9.77;;;20.50;99.90;;;;;;5027266;28;20671;-90
2023/09/12 02:31:59;;;;;;;11.00;9.75;;;19.50;99.90;;;;;;5008516;28;20557;-89
2023/09/12 02:34:25;;;;;;;13.00;9.67;;;20.00;99.90;;;;;;5002671;28;20193;-89
2023/09/12 02:36:50;;;;;;;10.80;9.80;;;19.80;99.90;;;;;;4996462;28;20256;-89
2023/09/12 02:39:16;;;;;;;11.43;9.83;;;20.10;99.90;;;;;;5005519;28;20183;-89
2023/09/12 02:41:41;;;;;;;11.27;10.17;;;20.30;99.90;;;;;;5028241;28;20241;-90
2023/09/12 02:44:07;;;;;;;10.73;9.53;;;19.80;99.90;;;;;;5023518;28;20250;-90
2023/09/12 02:46:33;;;;;;;11.00;9.90;;;19.80;99.90;;;;;;5017102;28;20236;-90
2023/09/12 02:48:59;;;;;;;12.48;9.00;;;20.40;99.90;;;;;;5024670;28;20183;-90
2023/09/12 02:51:28;;;;;;;9.90;8.90;;;19.60;99.90;;;;;;5025993;28;20227;-89
2023/09/12 02:53:53;;;;;;;10.73;9.60;;;19.90;99.90;;;;;;5021106;28;20175;-90
2023/09/12 02:56:19;;;;;;;11.50;9.03;;;20.60;99.90;;;;;;5027778;28;20254;-90
2023/09/12 02:58:48;;;;;;;12.03;8.90;;;19.90;99.90;;;;;;5025224;28;20191;-90
2023/09/12 03:01:16;;;;;;;12.80;9.95;;;19.70;99.90;;;;;;5010112;28;20206;-89
2023/09/12 03:03:41;;;;;;;11.55;9.95;;;19.80;99.90;;;;;;5004424;28;20186;-90
2023/09/12 03:06:07;;;;;;;10.00;9.10;;;19.70;99.90;;;;;;4999445;28;20180;-89
2023/09/12 03:08:32;;;;;;;11.10;9.90;;;19.90;99.90;;;;;;4998496;28;20191;-89
2023/09/12 03:10:58;;;;;;;11.30;10.20;;;19.90;99.90;;;;;;5009388;28;20248;-90
2023/09/12 03:13:30;;;;;;;12.00;9.83;;;19.50;99.90;;;;;;5016583;28;20203;-90
2023/09/12 03:15:55;;;;;;;12.23;9.98;;;19.70;99.90;;;;;;5019991;28;20172;-88
2023/09/12 03:18:21;;;;;;;11.67;9.97;;;19.60;99.90;;;;;;5023340;28;20203;-90
2023/09/12 03:20:46;;;;;;;11.50;10.40;;;19.50;99.90;;;;;;5008806;28;20260;-89
2023/09/12 03:23:12;;;;;;;14.23;10.67;;;20.20;99.90;;;;;;4999022;28;20261;-89
2023/09/12 03:25:38;;;;;;;12.43;10.00;;;19.70;99.90;;;;;;4995036;28;20192;-88
2023/09/12 03:28:05;;;;;;;10.65;9.55;;;19.60;99.90;;;;;;4995904;28;20214;-90
2023/09/12 03:30:34;;;;;;;11.48;10.35;;;19.80;99.90;;;;;;5000797;28;20183;-89
2023/09/12 03:32:59;;;;;;;10.48;9.48;;;19.70;99.90;;;;;;5000743;28;20205;-89
2023/09/12 03:35:25;;;;;;;13.87;10.80;;;19.80;99.90;;;;;;5002706;28;20200;-90
2023/09/12 03:37:51;;;;;;;14.13;9.68;;;20.20;99.90;;;;;;5001260;28;20635;-90
2023/09/12 03:40:16;;;;;;;11.93;10.30;;;19.30;99.90;;;;;;4998147;28;20198;-89
2023/09/12 03:42:42;;;;;;;11.27;10.20;;;19.80;99.90;;;;;;5005485;28;20210;-88
2023/09/12 03:45:08;;;;;;;10.70;9.53;;;19.80;99.90;;;;;;4998357;28;20203;-88
2023/09/12 03:47:34;;;;;;;14.73;10.82;;;19.30;99.90;;;;;;5005981;28;20223;-88
2023/09/12 03:49:59;;;;;;;11.00;9.97;;;19.30;99.90;;;;;;4999703;28;20785;-90
2023/09/12 03:52:25;;;;;;;11.00;9.90;;;19.60;99.90;;;;;;5006056;28;20206;-90
2023/09/12 03:54:50;;;;;;;10.80;9.80;;;19.70;99.90;;;;;;5003961;28;20748;-90
2023/09/12 03:57:16;;;;;;;14.70;11.30;;;19.70;99.90;;;;;;5000814;28;20655;-90
2023/09/12 03:59:42;;;;;;;14.53;10.10;;;20.20;99.90;;;;;;5023531;28;20183;-90
2023/09/12 04:02:08;;;;;;;13.57;9.97;;;19.70;99.90;;;;;;5014531;28;20214;-90
2023/09/12 04:04:34;;;;;;;12.23;10.98;;;19.80;99.90;;;;;;5009839;28;20269;-89
2023/09/12 04:07:00;;;;;;;11.87;10.50;;;19.40;99.90;;;;;;4974854;28;20326;-89
2023/09/12 04:09:25;;;;;;;10.97;9.63;;;19.80;99.90;;;;;;5002248;28;20460;-89
2023/09/12 04:11:51;;;;;;;14.27;10.87;;;20.00;99.90;;;;;;5006552;28;20199;-89
2023/09/12 04:14:16;;;;;;;13.87;10.10;;;20.50;99.90;;;;;;5000347;28;20196;-89
2023/09/12 04:16:42;;;;;;;10.97;9.87;;;19.40;99.90;;;;;;5005347;28;20205;-89
2023/09/12 04:19:08;;;;;;;11.67;10.40;;;19.70;99.90;;;;;;5006890;28;20442;-89
2023/09/12 04:21:33;;;;;;;12.37;9.60;;;19.30;99.90;;;;;;4988955;28;20209;-89
2023/09/12 04:23:59;;;;;;;10.93;9.80;;;19.70;99.90;;;;;;5002042;28;20183;-89
2023/09/12 04:26:24;;;;;;;11.60;10.40;;;19.30;99.90;;;;;;4999771;28;20242;-89
2023/09/12 04:28:50;;;;;;;11.80;10.50;;;19.20;99.90;;;;;;5007995;28;20275;-89
2023/09/12 04:31:16;;;;;;;11.70;10.27;;;19.20;99.90;;;;;;5004317;28;20189;-90
2023/09/12 04:33:41;;;;;;;13.10;10.33;;;19.70;99.90;;;;;;5019953;28;20429;-88
2023/09/12 04:36:07;;;;;;;12.33;11.03;;;19.50;99.90;;;;;;5023117;28;20214;-89
2023/09/12 04:38:33;;;;;;;11.90;10.60;;;19.70;99.90;;;;;;4999249;28;20191;-89
2023/09/12 04:41:04;;;;;;;12.40;11.10;;;19.30;99.90;;;;;;4999230;28;20659;-89
2023/09/12 04:43:32;;;;;;;10.82;9.80;;;19.80;99.90;;;;;;4995839;28;21043;-89
2023/09/12 04:45:58;;;;;;;11.07;9.85;;;19.90;99.90;;;;;;5005160;28;20189;-89
2023/09/12 04:48:24;;;;;;;11.57;9.57;;;19.20;99.90;;;;;;5004015;28;20202;-89
2023/09/12 04:50:49;;;;;;;14.10;10.27;;;19.40;99.90;;;;;;4998742;28;20232;-89
2023/09/12 04:53:15;;;;;;;12.37;10.70;;;19.40;99.90;;;;;;5001231;28;20241;-89
2023/09/12 04:55:41;;;;;;;11.87;10.00;;;19.90;99.90;;;;;;5003550;28;20640;-89
2023/09/12 04:58:07;;;;;;;10.67;9.67;;;19.80;99.90;;;;;;5002162;28;20672;-89
2023/09/12 05:00:33;;;;;;;10.63;9.60;;;20.20;99.90;;;;;;5008455;28;20192;-89
2023/09/12 05:03:00;;;;;;;11.73;10.52;;;19.80;99.90;;;;;;5010264;28;20478;-89
2023/09/12 05:05:27;;;;;;;11.90;10.70;;;19.50;99.90;;;;;;5003023;28;20202;-90
2023/09/12 05:07:52;;;;;;;13.67;12.10;;;19.90;99.90;;;;;;5003671;28;20522;-90
2023/09/12 05:10:18;;;;;;;16.43;11.97;;;19.60;99.90;;;;;;5000529;28;20199;-90
2023/09/12 05:12:44;;;;;;;13.43;12.13;;;20.70;99.90;;;;;;5000239;28;20211;-90
2023/09/12 05:15:10;;;;;;;10.80;9.80;;;19.80;99.90;;;;;;5002322;28;20191;-90
2023/09/12 05:17:35;;;;;;;12.83;11.13;;;19.80;99.90;;;;;;5001709;28;20449;-90
2023/09/12 05:20:03;;;;;;;11.83;9.90;;;19.80;99.90;;;;;;4998997;28;20222;-90
2023/09/12 05:22:29;;;;;;;13.23;11.93;;;19.40;99.90;;;;;;5004280;28;20738;-89
2023/09/12 05:24:54;;;;;;;11.10;10.03;;;19.50;99.90;;;;;;5000164;28;20188;-90
2023/09/12 05:27:20;;;;;;;12.47;11.17;;;20.40;99.90;;;;;;5000457;28;20656;-90
2023/09/12 05:29:45;;;;;;;12.40;10.83;;;20.00;99.90;;;;;;4999497;28;20183;-90
2023/09/12 05:32:11;;;;;;;11.67;10.50;;;19.70;99.90;;;;;;5002367;28;20353;-90
2023/09/12 05:34:37;;;;;;;21.03;16.77;;;19.60;99.90;;;;;;5006704;28;20550;-89
2023/09/12 05:37:03;;;;;;;13.07;10.95;;;19.70;99.90;;;;;;5007344;28;20183;-88
2023/09/12 05:39:28;;;;;;;16.60;14.77;;;19.80;99.90;;;;;;5003697;28;20202;-88
2023/09/12 05:41:54;;;;;;;16.60;15.03;;;20.40;99.90;;;;;;4999433;28;20757;-88
2023/09/12 05:44:19;;;;;;;13.80;12.23;;;20.20;99.90;;;;;;5000287;28;20711;-89
2023/09/12 05:46:46;;;;;;;12.80;11.47;;;20.40;99.90;;;;;;4990913;28;20239;-89
2023/09/12 05:49:13;;;;;;;12.27;11.00;;;20.30;99.90;;;;;;4988894;28;20200;-90
2023/09/12 05:51:38;;;;;;;13.50;10.98;;;20.80;99.90;;;;;;5006327;28;20258;-90
2023/09/12 05:54:04;;;;;;;12.33;10.30;;;20.10;99.90;;;;;;5015682;28;20191;-90
2023/09/12 05:56:30;;;;;;;11.70;10.50;;;20.40;99.90;;;;;;5017445;28;20571;-89
2023/09/12 05:58:55;;;;;;;12.80;11.50;;;20.80;99.90;;;;;;5007969;28;20195;-89
2023/09/12 06:01:21;;;;;;;13.67;11.20;;;20.10;99.90;;;;;;5019110;28;20221;-90
2023/09/12 06:03:46;;;;;;;12.63;10.80;;;20.90;99.90;;;;;;5001733;28;20214;-90
2023/09/12 06:06:12;;;;;;;11.97;10.70;;;21.40;99.90;;;;;;5006895;28;20241;-90
2023/09/12 06:08:37;;;;;;;12.83;10.37;;;21.30;99.90;;;;;;5001662;28;20191;-90
2023/09/12 06:11:04;;;;;;;12.38;10.77;;;21.40;99.90;;;;;;5000019;28;20253;-90
2023/09/12 06:13:32;;;;;;;11.67;10.43;;;23.30;99.90;;;;;;5007563;28;20714;-90
2023/09/12 06:15:58;;;;;;;12.17;11.07;;;22.30;99.90;;;;;;5021216;28;20822;-89
2023/09/12 06:18:24;;;;;;;13.90;10.73;;;22.40;99.90;;;;;;5007030;28;20453;-88
2023/09/12 06:20:49;;;;;;;11.60;10.43;;;22.20;99.90;;;;;;5009324;28;20214;-89
2023/09/12 06:23:15;;;;;;;11.90;10.33;;;22.70;99.90;;;;;;5021972;28;20477;-89
2023/09/12 06:25:43;;;;;;;12.80;11.50;;;23.20;99.90;;;;;;5016700;28;20199;-89
2023/09/12 06:28:10;;;;;;;12.40;11.30;;;22.40;99.90;;;;;;5022890;28;20182;-89
2023/09/12 06:30:36;;;;;;;13.43;11.23;;;22.70;99.90;;;;;;5024162;28;20464;-87
2023/09/12 06:33:02;;;;;;;11.93;10.73;;;22.70;99.90;;;;;;5019457;28;20541;-87
2023/09/12 06:35:27;;;;;;;12.00;10.80;;;22.50;99.90;;;;;;5018260;28;20462;-86
2023/09/12 06:37:55;;;;;;;11.53;10.30;;;22.60;99.90;;;;;;5021144;28;20187;-89
2023/09/12 06:40:22;;;;;;;11.20;10.17;;;22.60;99.90;;;;;;5019436;28;20211;-89
2023/09/12 06:42:48;;;;;;;11.70;10.70;;;22.80;99.90;;;;;;5011656;28;20469;-88
2023/09/12 06:45:13;;;;;;;13.77;10.47;;;23.90;99.90;;;;;;5003139;28;20511;-88
2023/09/12 06:47:39;;;;;;;12.73;10.40;;;22.90;99.90;;;;;;5003164;28;20195;-88
2023/09/12 06:50:05;;;;;;;12.23;10.97;;;22.90;99.90;;;;;;5000444;28;20193;-87
2023/09/12 06:52:30;;;;;;;14.57;12.97;;;23.00;99.90;;;;;;4999971;28;20198;-87
2023/09/12 06:54:56;;;;;;;12.97;11.20;;;22.70;99.90;;;;;;5002887;28;20454;-88
2023/09/12 06:57:22;;;;;;;11.60;10.47;;;23.20;99.90;;;;;;4999884;28;20188;-88
2023/09/12 06:59:49;;;;;;;14.53;10.97;;;23.30;99.90;;;;;;5002605;28;20288;-88
2023/09/12 07:02:14;;;;;;;13.63;12.10;;;23.50;99.90;;;;;;5007735;28;20215;-87
2023/09/12 07:04:40;;;;;;;12.13;11.00;;;23.90;99.90;;;;;;5005173;28;20461;-90
2023/09/12 07:07:05;;;;;;;12.80;10.93;;;23.90;99.90;;;;;;5004443;28;20188;-86
2023/09/12 07:09:31;;;;;;;12.03;10.80;;;23.90;99.90;;;;;;5005256;28;20636;-85
2023/09/12 07:11:56;;;;;;;12.30;10.20;;;24.70;99.90;;;;;;5007599;28;20626;-84
2023/09/12 07:14:23;;;;;;;12.40;11.30;;;25.70;99.90;;;;;;5010425;28;20226;-86
2023/09/12 07:16:49;;;;;;;12.60;11.40;;;26.70;96.60;;;;;;5021549;28;20191;-86
2023/09/12 07:19:27;;;;;;;14.00;12.60;;;27.50;95.10;;;;;;5025439;28;20456;-88
2023/09/12 07:21:53;;;;;;;13.20;10.70;;;27.50;94.10;;;;;;5018186;23;20240;-71
2023/09/12 07:24:18;;;;;;;13.50;11.13;;;28.20;93.20;;;;;;5038250;28;20509;-74
2023/09/12 07:26:46;;;;;;;12.67;11.47;;;28.60;91.90;;;;;;5036760;28;20191;-73
2023/09/12 07:29:12;;;;;;;15.73;10.47;;;28.60;91.40;;;;;;5034105;28;20340;-72
2023/09/12 07:31:38;;;;;;;12.43;10.90;;;28.30;91.50;;;;;;5036440;28;20455;-74
2023/09/12 07:34:04;;;;;;;13.57;12.37;;;28.10;92.00;;;;;;5035293;28;20986;-72
2023/09/12 07:36:30;;;;;;;11.67;10.33;;;27.80;92.10;;;;;;5036872;28;20191;-71
2023/09/12 07:38:55;;;;;;;12.93;11.73;;;27.60;92.50;;;;;;5041757;28;20608;-71
2023/09/12 07:41:21;;;;;;;15.53;12.50;;;27.40;92.80;;;;;;5037540;28;20476;-69
2023/09/12 07:43:46;;;;;;;15.13;12.70;;;27.20;93.30;;;;;;5036064;28;20634;-69
2023/09/12 07:46:12;;;;;;;11.90;10.50;;;28.50;92.70;;;;;;5044807;28;20245;-76
2023/09/12 07:48:38;;;;;;;12.60;11.40;;;29.70;89.50;;;;;;5040377;28;20198;-75
2023/09/12 07:51:12;;;;;;;14.63;11.63;;;31.30;85.10;;;;;;5043583;28;21021;-77
2023/09/12 07:53:38;;;;;;;14.13;10.30;;;33.40;77.00;;;;;;5041653;28;20289;-71
2023/09/12 07:56:03;;;;;;;13.23;11.07;;;33.30;74.00;;;;;;5036546;28;20527;-71
2023/09/12 07:58:29;;;;;;;12.70;10.10;;;32.60;74.60;;;;;;5035096;28;20694;-73
2023/09/12 08:00:55;;;;;;;11.43;10.27;;;32.30;75.50;;;;;;5036036;28;20203;-73
2023/09/12 08:03:20;;;;;;;14.00;10.57;;;32.50;76.50;;;;;;5043912;28;20558;-72
2023/09/12 08:05:56;;;;;;;11.20;10.10;;;31.90;76.30;;;;;;5033269;28;20195;-73
2023/09/12 08:08:21;;;;;;;10.47;9.40;;;32.40;75.80;;;;;;5037794;28;20879;-71
2023/09/12 08:10:47;;;;;;;11.63;10.53;;;32.90;73.70;;;;;;5039190;28;20619;-70
2023/09/12 08:13:12;;;;;;;11.83;10.10;;;32.60;73.70;;;;;;5036861;28;20188;-74
2023/09/12 08:15:38;;;;;;;12.03;10.47;;;32.20;74.60;;;;;;5038296;28;20220;-74
2023/09/12 08:18:04;;;;;;;11.33;10.23;;;32.20;75.80;;;;;;5043092;28;20799;-70
2023/09/12 08:20:29;;;;;;;11.07;9.97;;;32.70;74.70;;;;;;5034859;28;20190;-72
2023/09/12 08:22:55;;;;;;;11.70;10.50;;;32.60;74.10;;;;;;5035782;28;20213;-71
2023/09/12 08:25:21;;;;;;;13.10;10.50;;;32.30;73.90;;;;;;5042451;28;20189;-72
2023/09/12 08:27:46;;;;;;;11.03;10.13;;;31.90;75.40;;;;;;5040080;28;20196;-73
2023/09/12 08:30:13;;;;;;;10.80;9.90;;;31.70;76.60;;;;;;5039173;28;20185;-73
2023/09/12 08:32:45;;;;;;;18.90;17.37;;;31.10;78.10;;;;;;5036607;28;20174;-73
2023/09/12 08:35:15;;;;;;;17.70;16.07;;;30.70;79.20;;;;;;5034014;28;20433;-73
2023/09/12 08:37:41;;;;;;;13.87;12.27;;;30.30;80.20;;;;;;5035887;28;21001;-73
2023/09/12 08:40:10;;;;;;;13.93;12.57;;;29.70;82.30;;;;;;5036816;28;20465;-73
2023/09/12 08:42:40;;;;;;;13.27;10.80;;;29.40;83.90;;;;;;5037567;28;20845;-74
2023/09/12 08:45:11;;;;;;;12.60;11.50;;;29.30;84.70;;;;;;5035433;28;20471;-73
2023/09/12 08:47:40;;;;;;;18.20;11.97;;;29.10;85.00;;;;;;5036528;28;20890;-73
2023/09/12 08:50:07;;;;;;;11.33;10.23;;;29.00;85.50;;;;;;5031918;28;20722;-73
2023/09/12 08:52:33;;;;;;;12.03;10.93;;;28.80;87.30;;;;;;5037360;28;20446;-74
2023/09/12 08:54:59;;;;;;;12.97;11.70;;;28.70;88.10;;;;;;5037822;28;20525;-73
2023/09/12 08:57:25;;;;;;;12.80;11.50;;;28.50;89.10;;;;;;5034645;28;20195;-73
2023/09/12 08:59:51;;;;;;;18.20;11.80;;;28.30;88.90;;;;;;5034532;28;20588;-73
2023/09/12 09:02:17;;;;;;;12.03;10.80;;;28.20;90.00;;;;;;5036763;28;20999;-74
2023/09/12 09:04:47;;;;;;;12.83;10.87;;;28.20;90.00;;;;;;5041317;28;20437;-72
2023/09/12 09:07:13;;;;;;;13.13;11.23;;;28.20;90.20;;;;;;5034636;28;20459;-72
2023/09/12 09:09:39;;;;;;;12.13;10.80;;;28.20;90.20;;;;;;5038311;28;20467;-73
2023/09/12 09:12:10;;;;;;;12.00;10.80;;;28.40;90.20;;;;;;5040539;28;20451;-73
2023/09/12 09:14:36;;;;;;;12.17;11.07;;;28.60;90.00;;;;;;5035221;28;20187;-74
2023/09/12 09:17:01;;;;;;;11.10;10.10;;;28.50;90.20;;;;;;5037471;28;21055;-72
2023/09/12 09:19:44;;;;;;;11.77;10.60;;;28.50;90.30;;;;;;5036672;28;20213;-73
2023/09/12 09:22:10;;;;;;;13.30;11.23;;;28.60;90.00;;;;;;5034639;28;20303;-73
2023/09/12 09:24:36;;;;;;;12.13;11.00;;;28.60;90.10;;;;;;5040596;28;20509;-72
2023/09/12 09:27:02;;;;;;;14.13;11.20;;;28.70;90.00;;;;;;5037412;28;20472;-73
2023/09/12 09:29:32;;;;;;;11.60;10.50;;;28.70;89.90;;;;;;5033806;28;20207;-73
2023/09/12 09:32:05;;;;;;;12.10;11.00;;;28.80;89.80;;;;;;5039643;28;20193;-71
2023/09/12 09:34:31;;;;;;;11.20;10.17;;;28.90;89.80;;;;;;5033745;28;20509;-71
2023/09/12 09:36:58;;;;;;;15.20;11.33;;;29.10;89.30;;;;;;5032118;28;20444;-70
2023/09/12 09:39:25;;;;;;;15.73;11.57;;;29.10;89.40;;;;;;5039634;28;20465;-70
2023/09/12 09:41:53;;;;;;;13.90;11.00;;;29.10;88.60;;;;;;5033605;28;20468;-71
2023/09/12 09:44:22;;;;;;;12.43;11.00;;;29.70;87.90;;;;;;5033376;28;20526;-70
2023/09/12 09:46:54;;;;;;;11.97;10.87;;;30.20;86.20;;;;;;5035614;28;20437;-70
2023/09/12 09:49:21;;;;;;;16.60;10.53;;;30.50;85.40;;;;;;5034621;28;20470;-71
2023/09/12 09:51:46;;;;;;;11.30;10.13;;;30.30;84.70;;;;;;5038556;28;20881;-71
2023/09/12 09:54:13;;;;;;;10.87;9.80;;;30.30;85.40;;;;;;5033100;28;20476;-71
2023/09/12 09:56:49;;;;;;;11.90;10.87;;;30.00;84.60;;;;;;5035001;28;20467;-70
2023/09/12 09:59:21;;;;;;;12.77;11.47;;;30.30;84.80;;;;;;5040505;28;20851;-70
2023/09/12 10:01:49;;;;;;;15.70;12.23;;;30.30;85.50;;;;;;5037540;28;20465;-66
2023/09/12 10:04:15;;;;;;;11.97;10.80;;;30.30;85.70;;;;;;5029582;28;20468;-69
2023/09/12 10:06:45;;;;;;;12.70;11.70;;;30.40;85.70;;;;;;5036295;28;20505;-69
2023/09/12 10:09:15;;;;;;;12.47;11.33;;;30.40;85.70;;;;;;5032876;28;20487;-69
2023/09/12 10:11:43;;;;;;;22.00;11.43;;;30.50;85.30;;;;;;5037326;28;20844;-70
2023/09/12 10:14:09;;;;;;;13.80;12.40;;;30.40;85.70;;;;;;5037624;28;20952;-72
2023/09/12 10:16:51;;;;;;;14.73;13.13;;;30.30;86.00;;;;;;5036051;28;20954;-72
2023/09/12 10:19:19;;;;;;;11.30;10.40;;;30.00;87.40;;;;;;5035371;28;20470;-71
2023/09/12 10:21:54;;;;;;;13.60;11.20;;;30.00;88.00;;;;;;5038361;28;20726;-74
2023/09/12 10:24:21;;;;;;;13.27;11.93;;;30.10;86.20;;;;;;5036849;28;20514;-73
2023/09/12 10:26:50;;;;;;;18.03;11.80;;;30.00;86.80;;;;;;5035678;28;20440;-73
2023/09/12 10:29:16;;;;;;;12.50;11.30;;;30.10;86.60;;;;;;5034934;28;20500;-73
2023/09/12 10:31:41;;;;;;;12.40;11.23;;;30.30;84.90;;;;;;5036384;28;20964;-74
2023/09/12 10:34:09;;;;;;;12.70;11.50;;;30.30;84.80;;;;;;5034168;28;20467;-74
2023/09/12 10:36:40;;;;;;;12.40;11.07;;;30.40;84.30;;;;;;5040621;28;20247;-73
2023/09/12 10:39:07;;;;;;;12.83;10.70;;;30.50;84.50;;;;;;5037199;28;20479;-74
2023/09/12 10:41:36;;;;;;;12.13;11.00;;;30.60;83.00;;;;;;5032682;28;20480;-73
2023/09/12 10:44:14;;;;;;;12.50;11.27;;;30.70;82.40;;;;;;5034199;28;20488;-73
2023/09/12 10:46:41;;;;;;;11.33;10.47;;;30.70;82.50;;;;;;5033665;28;20459;-70
2023/09/12 10:49:11;;;;;;;12.60;10.57;;;30.80;81.90;;;;;;5039104;28;20870;-73
2023/09/12 10:51:45;;;;;;;12.73;11.40;;;30.70;81.70;;;;;;5032725;28;20454;-72
2023/09/12 10:54:25;;;;;;;12.87;11.67;;;30.60;81.40;;;;;;5033942;28;20449;-69
2023/09/12 10:57:08;;;;;;;12.80;11.47;;;30.60;81.70;;;;;;5039628;28;20987;-72
2023/09/12 10:59:35;;;;;;;11.37;10.33;;;30.70;81.20;;;;;;5035747;28;20569;-72
2023/09/12 11:02:32;;;;;;;13.00;11.47;;;30.70;80.20;;;;;;5033422;28;20563;-71
2023/09/12 11:05:05;;;;;;;11.30;10.20;;;30.70;80.40;;;;;;5033267;28;20482;-70
2023/09/12 11:07:40;;;;;;;11.93;10.73;;;30.80;79.50;;;;;;5034080;28;20442;-69
2023/09/12 11:10:27;;;;;;;10.87;9.80;;;30.80;79.80;;;;;;5029080;28;20443;-69
2023/09/12 11:12:57;;;;;;;12.37;10.87;;;30.90;78.10;;;;;;5035004;28;20437;-69
2023/09/12 11:15:25;;;;;;;11.00;10.10;;;31.00;78.80;;;;;;5028585;28;20440;-70
2023/09/12 11:18:05;;;;;;;11.27;10.17;;;31.10;78.40;;;;;;5033169;28;20496;-70
2023/09/12 11:20:53;;;;;;;11.63;10.63;;;30.90;78.10;;;;;;5031215;28;20496;-70
2023/09/12 11:23:19;;;;;;;12.40;10.40;;;31.00;77.70;;;;;;5036489;28;20447;-69
2023/09/12 11:25:44;;;;;;;11.93;10.80;;;31.00;77.50;;;;;;5035250;28;20458;-69
2023/09/12 11:28:10;;;;;;;11.43;10.30;;;31.00;77.20;;;;;;5034697;28;20835;-69
2023/09/12 11:30:36;;;;;;;11.20;10.17;;;31.20;77.70;;;;;;5033164;28;20753;-69
2023/09/12 11:33:05;;;;;;;11.07;10.07;;;31.20;76.80;;;;;;5029324;28;20190;-71
2023/09/12 11:35:37;;;;;;;11.50;10.43;;;31.30;77.00;;;;;;5034730;28;20184;-70
2023/09/12 11:38:03;;;;;;;11.83;10.73;;;31.40;77.40;;;;;;5031367;28;20453;-70
2023/09/12 11:40:34;;;;;;;12.03;11.00;;;31.40;76.90;;;;;;5037372;28;20939;-70
2023/09/12 11:43:01;;;;;;;12.10;11.00;;;31.50;75.70;;;;;;5041123;28;20678;-70
2023/09/12 11:45:27;;;;;;;10.33;9.43;;;31.40;76.00;;;;;;5034185;28;20908;-70
2023/09/12 11:47:53;;;;;;;10.90;9.90;;;31.40;75.80;;;;;;5036736;28;20455;-69
2023/09/12 11:50:39;;;;;;;10.97;10.00;;;31.40;74.70;;;;;;5042674;28;20501;-70
2023/09/12 11:53:07;;;;;;;11.77;10.60;;;31.30;75.00;;;;;;5036439;28;20203;-69
2023/09/12 11:55:36;;;;;;;11.27;10.37;;;31.30;75.20;;;;;;5040720;28;20469;-70
2023/09/12 11:58:03;;;;;;;10.70;9.80;;;31.50;74.80;;;;;;5035477;28;20886;-70
2023/09/12 12:00:29;;;;;;;12.20;10.37;;;32.00;73.20;;;;;;5039830;28;20454;-70
2023/09/12 12:02:55;;;;;;;10.80;9.80;;;32.40;71.50;;;;;;5038136;28;20508;-70
2023/09/12 12:05:22;;;;;;;12.27;9.87;;;32.70;70.20;;;;;;5039389;28;20448;-70
2023/09/12 12:07:48;;;;;;;10.87;9.80;;;32.70;69.30;;;;;;5035949;28;21026;-70
2023/09/12 12:10:15;;;;;;;12.27;9.87;;;32.70;68.70;;;;;;5036996;28;20445;-70
2023/09/12 12:12:44;;;;;;;11.03;10.03;;;32.60;69.50;;;;;;5037976;28;20450;-72
2023/09/12 12:15:13;;;;;;;10.47;9.50;;;32.50;69.20;;;;;;5041324;28;20458;-70
2023/09/12 12:17:41;;;;;;;9.57;8.73;;;32.40;69.50;;;;;;5036529;28;20451;-69
2023/09/12 12:20:10;;;;;;;11.73;9.77;;;32.30;69.40;;;;;;5043302;28;20458;-69
2023/09/12 12:22:40;;;;;;;11.37;9.80;;;32.20;69.10;;;;;;5039701;28;20471;-69
2023/09/12 12:25:10;;;;;;;10.53;9.57;;;32.10;68.50;;;;;;5036451;28;20447;-70
2023/09/12 12:27:37;;;;;;;10.30;9.43;;;32.00;67.50;;;;;;5035964;28;20529;-69
2023/09/12 12:30:05;;;;;;;10.93;9.93;;;32.00;69.10;;;;;;5032647;28;20818;-70
2023/09/12 12:32:30;;;;;;;10.40;9.30;;;32.10;68.70;;;;;;5033459;28;20451;-69